createdAt,value
2019-02-19T00:01:18.872Z,11.87
2019-02-19T00:03:48.312Z,12.27
2019-02-19T00:06:20.396Z,11.37
2019-02-19T00:08:52.396Z,12.10
2019-02-19T00:11:27.588Z,11.70
2019-02-19T00:13:57.036Z,11.63
2019-02-19T00:16:30.702Z,11.50
2019-02-19T00:19:00.120Z,11.33
2019-02-19T00:21:29.549Z,11.90
2019-02-19T00:23:58.976Z,11.53
2019-02-19T00:26:28.387Z,11.20
2019-02-19T00:29:00.463Z,10.73
2019-02-19T00:31:32.757Z,11.47
2019-02-19T00:34:16.239Z,11.27
2019-02-19T00:36:45.694Z,11.10
2019-02-19T00:39:16.737Z,10.00
2019-02-19T00:41:46.395Z,11.73
2019-02-19T00:44:18.502Z,11.20
2019-02-19T00:46:47.933Z,10.93
2019-02-19T00:49:17.398Z,10.90
2019-02-19T00:51:46.877Z,11.30
2019-02-19T00:54:16.406Z,11.07
2019-02-19T00:56:45.843Z,11.30
2019-02-19T00:59:16.997Z,11.20
2019-02-19T01:01:46.542Z,11.53
2019-02-19T01:04:15.969Z,11.77
2019-02-19T01:06:45.409Z,11.13
2019-02-19T01:09:14.836Z,11.17
2019-02-19T01:11:44.289Z,11.60
2019-02-19T01:14:13.751Z,11.07
2019-02-19T01:16:45.851Z,11.33
2019-02-19T01:19:15.259Z,11.57
2019-02-19T01:21:44.717Z,11.73
2019-02-19T01:24:14.119Z,11.20
2019-02-19T01:26:46.192Z,11.03
2019-02-19T01:29:19.113Z,10.80
2019-02-19T01:31:48.521Z,11.60
2019-02-19T01:34:20.549Z,11.03
2019-02-19T01:37:09.916Z,11.00
2019-02-19T01:39:40.906Z,11.10
2019-02-19T01:42:10.366Z,10.23
2019-02-19T01:44:39.775Z,10.63
2019-02-19T01:47:09.171Z,10.50
2019-02-19T01:49:41.279Z,10.70
2019-02-19T01:52:13.448Z,11.07
2019-02-19T01:54:47.423Z,11.17
2019-02-19T01:57:16.816Z,12.07
2019-02-19T01:59:46.493Z,11.20
2019-02-19T02:02:15.982Z,12.37
2019-02-19T02:04:45.482Z,12.00
2019-02-19T02:07:14.949Z,11.97
2019-02-19T02:09:44.356Z,12.40
2019-02-19T02:12:16.617Z,12.87
2019-02-19T02:14:46.033Z,13.17
2019-02-19T02:17:15.431Z,13.37
2019-02-19T02:19:53.743Z,13.50
2019-02-19T02:22:25.937Z,16.40
2019-02-19T02:24:55.316Z,16.80
2019-02-19T02:27:24.727Z,16.33
2019-02-19T02:29:54.220Z,16.50
2019-02-19T02:32:28.127Z,18.63
2019-02-19T02:34:59.273Z,16.80
2019-02-19T02:37:30.316Z,16.70
2019-02-19T02:39:59.823Z,19.40
2019-02-19T02:42:31.964Z,18.93
2019-02-19T02:45:01.364Z,20.43
2019-02-19T02:47:30.787Z,19.93
2019-02-19T02:50:00.247Z,20.20
2019-02-19T02:52:36.978Z,20.60
2019-02-19T02:55:06.381Z,21.87
2019-02-19T02:57:35.785Z,22.50
2019-02-19T03:00:08.137Z,24.63
2019-02-19T03:02:37.710Z,24.97
2019-02-19T03:05:07.130Z,23.87
2019-02-19T03:07:38.158Z,24.07
2019-02-19T03:10:07.622Z,25.87
2019-02-19T03:12:37.035Z,25.67
2019-02-19T03:15:07.694Z,24.87
2019-02-19T03:17:37.266Z,26.27
2019-02-19T03:20:07.462Z,24.97
2019-02-19T03:22:36.896Z,23.67
2019-02-19T03:25:06.306Z,24.13
2019-02-19T03:27:35.751Z,24.90
2019-02-19T03:30:09.725Z,25.23
2019-02-19T03:32:39.166Z,24.53
2019-02-19T03:35:10.200Z,24.73
2019-02-19T03:37:40.246Z,24.40
2019-02-19T03:40:17.607Z,24.20
2019-02-19T03:42:49.692Z,23.40
2019-02-19T03:45:19.162Z,24.23
2019-02-19T03:47:48.591Z,24.47
2019-02-19T03:50:18.032Z,24.63
2019-02-19T03:52:47.439Z,25.00
2019-02-19T03:55:16.870Z,24.60
2019-02-19T03:57:46.275Z,24.50
2019-02-19T04:00:17.077Z,25.13
2019-02-19T04:02:46.532Z,25.57
2019-02-19T04:05:15.989Z,25.93
2019-02-19T04:07:45.477Z,27.30
2019-02-19T04:10:14.895Z,26.10
2019-02-19T04:12:44.402Z,27.70
2019-02-19T04:15:16.505Z,28.10
2019-02-19T04:17:45.918Z,27.07
2019-02-19T04:20:15.341Z,27.13
2019-02-19T04:22:44.768Z,28.40
2019-02-19T04:25:14.183Z,26.97
2019-02-19T04:27:51.574Z,26.60
2019-02-19T04:30:32.996Z,27.87
2019-02-19T04:33:05.112Z,27.27
2019-02-19T04:35:47.314Z,25.97
2019-02-19T04:38:16.735Z,26.07
2019-02-19T04:40:46.138Z,27.60
2019-02-19T04:43:15.566Z,26.37
2019-02-19T04:45:52.263Z,28.37
2019-02-19T04:48:42.672Z,29.57
2019-02-19T04:51:16.369Z,29.03
2019-02-19T04:53:45.810Z,30.57
2019-02-19T04:56:15.236Z,30.47
2019-02-19T04:58:44.672Z,30.00
2019-02-19T05:01:14.182Z,29.87
2019-02-19T05:03:46.411Z,29.90
2019-02-19T05:06:17.447Z,29.53
2019-02-19T05:08:46.837Z,29.07
2019-02-19T05:11:16.258Z,29.30
2019-02-19T05:13:45.707Z,29.37
2019-02-19T05:19:20.203Z,30.80
2019-02-19T05:22:01.571Z,30.70
2019-02-19T05:24:31.065Z,30.30
2019-02-19T05:27:00.555Z,30.50
2019-02-19T05:29:29.954Z,33.73
2019-02-19T05:36:32.481Z,31.93
2019-02-19T05:39:57.283Z,33.10
2019-02-19T05:43:21.164Z,32.90
2019-02-19T05:46:49.867Z,33.57
2019-02-19T05:50:10.715Z,33.00
2019-02-19T05:53:35.888Z,33.07
2019-02-19T05:56:59.928Z,34.80
2019-02-19T06:00:31.563Z,37.20
2019-02-19T06:03:55.423Z,35.53
2019-02-19T06:07:19.188Z,34.77
2019-02-19T06:10:44.179Z,36.30
2019-02-19T06:14:08.455Z,35.13
2019-02-19T06:17:33.322Z,34.17
2019-02-19T06:20:08.739Z,33.90
2019-02-19T06:22:38.070Z,33.90
2019-02-19T06:26:02.284Z,33.80
2019-02-19T06:28:41.797Z,33.43
2019-02-19T06:31:11.092Z,32.07
2019-02-19T06:33:40.332Z,33.03
2019-02-19T06:36:09.644Z,33.77
2019-02-19T06:39:33.449Z,32.00
2019-02-19T06:42:06.126Z,30.33
2019-02-19T06:44:35.686Z,32.20
2019-02-19T06:47:07.232Z,31.70
2019-02-19T06:49:36.802Z,30.87
2019-02-19T06:52:06.226Z,31.93
2019-02-19T06:54:35.628Z,33.27
2019-02-19T06:57:05.057Z,29.50
2019-02-19T06:59:34.516Z,30.50
2019-02-19T07:02:05.570Z,30.60
2019-02-19T07:04:53.554Z,30.30
2019-02-19T07:07:27.339Z,28.30
2019-02-19T07:09:56.810Z,30.37
2019-02-19T07:12:26.234Z,29.53
2019-02-19T07:15:03.708Z,30.23
2019-02-19T07:17:41.077Z,29.60
2019-02-19T07:20:10.850Z,29.43
2019-02-19T07:22:40.266Z,29.77
2019-02-19T07:25:13.897Z,28.50
2019-02-19T07:27:43.330Z,28.40
2019-02-19T07:30:17.343Z,28.63
2019-02-19T07:32:47.020Z,28.20
2019-02-19T07:35:16.558Z,29.67
2019-02-19T07:37:46.031Z,29.07
2019-02-19T07:40:17.351Z,29.10
2019-02-19T07:42:48.716Z,28.23
2019-02-19T07:45:18.344Z,28.70
2019-02-19T07:47:47.781Z,29.07
2019-02-19T07:50:17.697Z,29.40
2019-02-19T07:52:47.270Z,28.27
2019-02-19T07:55:16.707Z,27.90
2019-02-19T07:57:46.116Z,29.07
2019-02-19T08:00:15.565Z,28.67
2019-02-19T08:02:45.021Z,28.60
2019-02-19T08:05:14.402Z,30.73
2019-02-19T08:07:48.441Z,30.53
2019-02-19T08:10:17.851Z,31.13
2019-02-19T08:12:50.291Z,31.57
2019-02-19T08:15:19.840Z,35.07
2019-02-19T08:17:52.274Z,34.00
2019-02-19T08:20:24.071Z,33.90
2019-02-19T08:23:00.560Z,37.10
2019-02-19T08:25:30.407Z,40.70
2019-02-19T08:28:00.041Z,44.83
2019-02-19T08:31:02.730Z,45.53
2019-02-19T08:33:36.705Z,49.23
2019-02-19T08:36:06.227Z,48.60
2019-02-19T08:38:35.666Z,46.67
2019-02-19T08:41:05.288Z,40.87
2019-02-19T08:43:36.156Z,36.97
2019-02-19T08:46:05.573Z,33.97
2019-02-19T08:48:35.024Z,32.63
2019-02-19T08:51:04.480Z,34.17
2019-02-19T08:53:33.939Z,33.03
2019-02-19T08:56:22.093Z,28.37
2019-02-19T08:58:51.905Z,27.73
2019-02-19T09:01:39.625Z,26.97
2019-02-19T09:04:15.466Z,23.17
2019-02-19T09:07:03.830Z,22.97
2019-02-19T09:09:42.148Z,22.10
2019-02-19T09:12:17.289Z,19.80
2019-02-19T09:14:55.837Z,20.83
2019-02-19T09:17:28.004Z,19.33
2019-02-19T09:19:57.504Z,20.10
2019-02-19T09:22:26.910Z,18.13
2019-02-19T09:25:08.979Z,16.90
2019-02-19T09:27:47.395Z,18.47
2019-02-19T09:30:16.844Z,19.80
2019-02-19T09:32:47.999Z,18.00
2019-02-19T09:35:19.372Z,17.53
2019-02-19T09:38:11.840Z,15.73
2019-02-19T09:41:01.192Z,15.10
2019-02-19T09:43:50.376Z,16.53
2019-02-19T09:46:50.615Z,14.90
2019-02-19T09:49:27.607Z,14.70
2019-02-19T09:51:57.102Z,14.60
2019-02-19T09:54:45.239Z,14.23
2019-02-19T09:57:19.198Z,14.03
2019-02-19T10:00:10.117Z,13.87
2019-02-19T10:02:58.075Z,12.43
2019-02-19T10:05:48.033Z,13.17
2019-02-19T10:08:27.600Z,11.40
2019-02-19T10:10:59.648Z,11.87
2019-02-19T10:13:37.546Z,12.00
2019-02-19T10:16:24.245Z,11.10
2019-02-19T10:19:26.061Z,11.27
2019-02-19T10:22:11.326Z,11.17
2019-02-19T10:24:40.868Z,11.80
2019-02-19T10:27:29.222Z,11.17
2019-02-19T10:30:19.235Z,11.90
2019-02-19T10:32:51.523Z,12.17
2019-02-19T10:35:39.427Z,12.57
2019-02-19T10:38:27.200Z,11.63
2019-02-19T10:41:11.967Z,12.30
2019-02-19T10:43:41.411Z,11.90
2019-02-19T10:46:12.609Z,10.90
2019-02-19T10:48:55.472Z,10.80
2019-02-19T10:51:37.074Z,9.30
2019-02-19T10:54:24.828Z,8.73
2019-02-19T10:57:06.350Z,9.40
2019-02-19T10:59:51.155Z,9.63
2019-02-19T11:02:26.558Z,9.87
2019-02-19T11:05:00.411Z,9.93
2019-02-19T11:07:32.732Z,9.83
2019-02-19T11:10:20.217Z,9.90
2019-02-19T11:13:08.355Z,10.67
2019-02-19T11:15:42.141Z,9.30
2019-02-19T11:18:11.560Z,9.60
2019-02-19T11:20:46.478Z,10.57
2019-02-19T11:23:20.415Z,12.77
2019-02-19T11:25:49.906Z,10.33
2019-02-19T11:28:21.990Z,11.20
2019-02-19T11:31:09.534Z,9.73
2019-02-19T11:33:40.552Z,8.70
2019-02-19T11:36:28.259Z,9.43
2019-02-19T11:39:00.329Z,8.57
2019-02-19T11:41:38.980Z,9.13
2019-02-19T11:44:11.116Z,9.67
2019-02-19T11:46:49.594Z,8.73
2019-02-19T11:49:37.128Z,8.97
2019-02-19T11:52:24.959Z,8.00
2019-02-19T11:55:14.749Z,8.00
2019-02-19T11:57:46.816Z,7.67
2019-02-19T12:00:23.649Z,7.60
2019-02-19T12:03:11.704Z,7.20
2019-02-19T12:05:59.361Z,7.30
2019-02-19T12:08:47.274Z,8.50
2019-02-19T12:11:22.450Z,7.87
2019-02-19T12:14:10.075Z,7.50
2019-02-19T12:16:57.627Z,6.60
2019-02-19T12:19:45.159Z,6.47
2019-02-19T12:22:32.550Z,6.40
2019-02-19T12:25:20.583Z,6.73
2019-02-19T12:28:09.476Z,6.33
2019-02-19T12:30:55.355Z,6.50
2019-02-19T12:35:23.572Z,5.80
2019-02-19T12:38:06.851Z,6.10
2019-02-19T12:40:51.408Z,6.00
2019-02-19T12:43:38.855Z,6.13
2019-02-19T12:46:17.284Z,5.10
2019-02-19T12:48:54.749Z,6.40
2019-02-19T12:51:40.513Z,5.37
2019-02-19T12:54:30.413Z,5.47
2019-02-19T12:56:59.197Z,5.47
2019-02-19T12:59:43.959Z,5.27
2019-02-19T13:02:19.615Z,5.17
2019-02-19T13:04:51.673Z,4.13
2019-02-19T13:07:21.288Z,4.90
2019-02-19T13:10:02.618Z,4.97
2019-02-19T13:12:34.653Z,4.03
2019-02-19T13:15:22.939Z,4.03
2019-02-19T13:17:52.433Z,4.93
2019-02-19T13:20:24.673Z,4.83
2019-02-19T13:23:12.297Z,4.37
2019-02-19T13:26:00.267Z,4.50
2019-02-19T13:28:47.362Z,4.73
2019-02-19T13:31:22.844Z,4.30
2019-02-19T13:33:52.272Z,4.13
2019-02-19T13:36:39.738Z,3.97
2019-02-19T13:39:11.799Z,3.97
2019-02-19T13:41:47.317Z,4.17
2019-02-19T13:44:19.558Z,3.77
2019-02-19T13:46:59.716Z,3.80
2019-02-19T13:49:32.283Z,3.93
2019-02-19T13:52:08.097Z,3.57
2019-02-19T13:54:43.790Z,3.80
2019-02-19T13:57:31.030Z,3.73
2019-02-19T14:00:18.382Z,3.53
2019-02-19T14:03:05.834Z,3.30
2019-02-19T14:05:37.814Z,3.20
2019-02-19T14:08:22.171Z,3.17
2019-02-19T14:11:09.739Z,3.03
2019-02-19T14:13:43.426Z,3.00
2019-02-19T14:16:16.944Z,3.60
2019-02-19T14:18:51.047Z,3.33
2019-02-19T14:21:23.895Z,3.37
2019-02-19T14:23:54.963Z,3.33
2019-02-19T14:26:25.987Z,2.97
2019-02-19T14:28:57.136Z,3.03
2019-02-19T14:31:28.118Z,2.60
2019-02-19T14:33:59.143Z,2.50
2019-02-19T14:36:30.561Z,2.83
2019-02-19T14:39:01.601Z,3.10
2019-02-19T14:41:32.678Z,2.87
2019-02-19T14:44:05.337Z,3.00
2019-02-19T14:46:36.375Z,3.03
2019-02-19T14:49:07.443Z,3.13
2019-02-19T14:51:40.014Z,3.63
2019-02-19T14:54:11.030Z,3.00
2019-02-19T14:56:42.139Z,3.33
2019-02-19T14:59:13.116Z,3.43
2019-02-19T15:01:44.147Z,3.30
2019-02-19T15:04:15.443Z,2.83
2019-02-19T15:06:46.442Z,3.27
2019-02-19T15:09:17.753Z,3.30
2019-02-19T15:11:52.657Z,3.23
2019-02-19T15:14:23.665Z,3.03
2019-02-19T15:16:54.702Z,3.13
2019-02-19T15:19:28.673Z,2.87
2019-02-19T15:21:59.862Z,3.23
2019-02-19T15:24:30.861Z,2.93
2019-02-19T15:27:01.858Z,3.10
2019-02-19T15:29:32.883Z,2.90
2019-02-19T15:32:03.984Z,3.13
2019-02-19T15:34:35.392Z,3.10
2019-02-19T15:37:19.842Z,3.00
2019-02-19T15:39:50.973Z,3.13
2019-02-19T15:42:24.451Z,3.40
2019-02-19T15:44:55.461Z,3.30
2019-02-19T15:47:29.523Z,3.47
2019-02-19T15:50:00.476Z,3.80
2019-02-19T15:52:31.727Z,3.70
2019-02-19T15:55:23.658Z,3.50
2019-02-19T15:57:54.691Z,3.30
2019-02-19T16:00:25.757Z,3.40
2019-02-19T16:02:56.764Z,3.00
2019-02-19T16:05:28.116Z,3.33
2019-02-19T16:10:45.858Z,3.00
2019-02-19T16:13:16.864Z,3.83
2019-02-19T16:15:48.257Z,3.53
2019-02-19T16:18:19.296Z,3.87
2019-02-19T16:20:50.484Z,3.83
2019-02-19T16:23:21.554Z,4.17
2019-02-19T16:25:52.577Z,4.30
2019-02-19T16:28:23.666Z,4.10
2019-02-19T16:30:54.755Z,4.00
2019-02-19T16:33:25.762Z,3.90
2019-02-19T16:35:57.081Z,4.27
2019-02-19T16:38:28.110Z,3.93
2019-02-19T16:40:59.147Z,3.90
2019-02-19T16:43:30.166Z,4.10
2019-02-19T16:46:01.273Z,3.70
2019-02-19T16:48:32.346Z,3.90
2019-02-19T16:51:03.358Z,4.10
2019-02-19T16:53:34.809Z,5.17
2019-02-19T16:56:05.904Z,4.20
2019-02-19T16:58:36.946Z,4.33
2019-02-19T17:01:08.026Z,4.10
2019-02-19T17:03:39.024Z,3.83
2019-02-19T17:06:10.054Z,4.40
2019-02-19T17:08:41.048Z,4.23
2019-02-19T17:11:12.208Z,3.97
2019-02-19T17:13:43.186Z,4.30
2019-02-19T17:16:14.228Z,4.33
2019-02-19T17:18:45.184Z,4.30
2019-02-19T17:21:16.266Z,4.40
2019-02-19T17:23:47.309Z,4.00
2019-02-19T17:26:18.335Z,4.17
2019-02-19T17:28:49.337Z,4.03
2019-02-19T17:31:22.739Z,4.10
2019-02-19T17:33:53.713Z,3.97
2019-02-19T17:36:24.716Z,3.83
2019-02-19T17:38:55.740Z,4.17
2019-02-19T17:41:26.748Z,4.97
2019-02-19T17:43:57.758Z,3.97
2019-02-19T17:46:28.829Z,4.03
2019-02-19T17:48:59.901Z,3.93
2019-02-19T17:51:31.291Z,4.23
2019-02-19T17:54:04.889Z,4.77
2019-02-19T17:56:35.980Z,4.97
2019-02-19T17:59:06.999Z,4.80
2019-02-19T18:01:38.012Z,6.10
2019-02-19T18:04:12.068Z,7.10
2019-02-19T18:06:44.731Z,9.00
2019-02-19T18:09:15.746Z,14.27
2019-02-19T18:11:46.762Z,19.63
2019-02-19T18:14:17.756Z,25.33
2019-02-19T18:16:48.816Z,26.60
2019-02-19T18:19:21.393Z,29.80
2019-02-19T18:21:50.862Z,27.97
2019-02-19T18:24:20.282Z,29.80
2019-02-19T18:26:49.697Z,32.03
2019-02-19T18:29:19.145Z,28.90
2019-02-19T18:31:48.534Z,30.63
2019-02-19T18:34:18.025Z,27.93
2019-02-19T18:36:47.451Z,29.53
2019-02-19T18:39:16.870Z,24.93
2019-02-19T18:41:46.328Z,25.00
2019-02-19T18:44:15.766Z,21.73
2019-02-19T18:46:47.884Z,24.70
2019-02-19T18:49:30.146Z,27.80
2019-02-19T18:51:59.593Z,27.93
2019-02-19T18:54:29.501Z,21.60
2019-02-19T18:56:58.913Z,26.90
2019-02-19T18:59:28.326Z,28.73
2019-02-19T19:02:17.134Z,33.90
2019-02-19T19:04:46.581Z,29.40
2019-02-19T19:07:16.041Z,27.23
2019-02-19T19:10:06.491Z,26.10
2019-02-19T19:12:35.930Z,23.53
2019-02-19T19:15:07.906Z,24.23
2019-02-19T19:17:50.426Z,24.23
2019-02-19T19:20:19.977Z,31.50
2019-02-19T19:22:49.379Z,29.47
2019-02-19T19:25:18.774Z,31.97
2019-02-19T19:27:48.179Z,31.77
2019-02-19T19:30:17.587Z,31.40
2019-02-19T19:32:59.904Z,32.83
2019-02-19T19:35:29.352Z,30.90
2019-02-19T19:37:58.773Z,27.63
2019-02-19T19:40:28.393Z,27.27
2019-02-19T19:42:57.847Z,20.70
2019-02-19T19:45:27.318Z,16.80
2019-02-19T19:47:56.720Z,12.33
2019-02-19T19:50:26.143Z,12.60
2019-02-19T19:52:55.631Z,13.40
2019-02-19T19:55:25.139Z,13.77
2019-02-19T19:58:13.949Z,18.67
2019-02-19T20:00:43.512Z,15.50
2019-02-19T20:03:15.328Z,18.97
2019-02-19T20:05:49.405Z,16.87
2019-02-19T20:08:18.893Z,19.30
2019-02-19T20:10:48.354Z,19.17
2019-02-19T20:13:20.496Z,15.60
2019-02-19T20:15:49.877Z,11.33
2019-02-19T20:18:20.556Z,10.27
2019-02-19T20:20:50.005Z,9.00
2019-02-19T20:23:19.443Z,8.80
2019-02-19T20:25:48.859Z,8.27
2019-02-19T20:28:18.319Z,8.07
2019-02-19T20:30:47.707Z,7.93
2019-02-19T20:33:17.195Z,10.73
2019-02-19T20:35:46.604Z,11.60
2019-02-19T20:38:16.026Z,17.07
2019-02-19T20:40:45.444Z,16.03
2019-02-19T20:43:14.859Z,16.70
2019-02-19T20:45:44.287Z,17.80
2019-02-19T20:48:13.825Z,18.53
2019-02-19T20:50:56.168Z,19.07
2019-02-19T20:53:43.631Z,19.73
2019-02-19T20:56:13.349Z,19.90
2019-02-19T20:58:42.774Z,21.70
2019-02-19T21:01:12.216Z,23.53
2019-02-19T21:03:41.720Z,24.10
2019-02-19T21:06:11.135Z,31.70
2019-02-19T21:08:40.532Z,36.43
2019-02-19T21:11:09.949Z,40.87
2019-02-19T21:13:39.357Z,45.60
2019-02-19T21:16:08.809Z,48.47
2019-02-19T21:18:38.223Z,52.43
2019-02-19T21:21:07.715Z,49.17
2019-02-19T21:23:37.125Z,48.57
2019-02-19T21:26:06.543Z,47.03
2019-02-19T21:28:35.977Z,42.27
2019-02-19T21:31:05.473Z,38.43
2019-02-19T21:33:34.927Z,34.53
2019-02-19T21:36:04.394Z,39.27
2019-02-19T21:38:33.890Z,41.37
2019-02-19T21:41:03.347Z,36.63
2019-02-19T21:43:32.771Z,31.70
2019-02-19T21:46:02.215Z,27.93
2019-02-19T21:48:31.706Z,25.10
2019-02-19T21:51:01.155Z,23.73
2019-02-19T21:53:30.577Z,20.63
2019-02-19T21:56:00.051Z,19.97
2019-02-19T21:58:29.828Z,40.80
2019-02-19T22:00:59.255Z,40.23
2019-02-19T22:03:28.754Z,55.87
2019-02-19T22:05:58.263Z,57.07
2019-02-19T22:08:27.651Z,49.20
2019-02-19T22:10:57.069Z,30.90
2019-02-19T22:13:26.488Z,24.77
2019-02-19T22:15:55.935Z,13.60
2019-02-19T22:18:25.334Z,13.50
2019-02-19T22:20:56.386Z,12.03
2019-02-19T22:23:26.092Z,9.70
2019-02-19T22:25:55.499Z,10.47
2019-02-19T22:28:24.929Z,8.73
2019-02-19T22:30:54.398Z,9.10
2019-02-19T22:33:23.858Z,9.33
2019-02-19T22:35:53.349Z,8.93
2019-02-19T22:38:22.831Z,8.50
2019-02-19T22:40:55.130Z,8.27
2019-02-19T22:43:42.748Z,9.10
2019-02-19T22:46:12.185Z,8.90
2019-02-19T22:48:41.595Z,9.07
2019-02-19T22:51:23.871Z,9.00
2019-02-19T22:53:54.903Z,9.07
2019-02-19T22:56:25.889Z,9.03
2019-02-19T22:59:15.807Z,8.37
2019-02-19T23:01:46.815Z,8.63
2019-02-19T23:04:16.370Z,8.93
2019-02-19T23:06:45.818Z,9.43
2019-02-19T23:09:15.226Z,9.40
2019-02-19T23:11:44.655Z,9.23
2019-02-19T23:14:14.069Z,8.60
2019-02-19T23:16:43.539Z,8.17
2019-02-19T23:19:12.941Z,8.20
2019-02-19T23:21:42.380Z,8.77
2019-02-19T23:24:11.754Z,9.10
2019-02-19T23:26:41.159Z,8.90
2019-02-19T23:29:10.566Z,8.97
2019-02-19T23:31:39.958Z,8.17
2019-02-19T23:34:09.367Z,8.20
2019-02-19T23:36:40.404Z,8.10
2019-02-19T23:39:09.810Z,8.83
2019-02-19T23:41:39.219Z,7.87
2019-02-19T23:44:08.627Z,8.17
2019-02-19T23:46:38.035Z,8.70
2019-02-19T23:49:07.457Z,8.37
2019-02-19T23:51:36.832Z,8.77
2019-02-19T23:54:06.260Z,8.67
2019-02-19T23:56:35.680Z,8.83
2019-02-19T23:59:05.153Z,9.00
